sensor_id;sensor_type;location;lat;lon;timestamp;temperature;humidity
39957;DHT22;48483;44.640;7.494;2022-09-09T00:00:27;22.30;99.90
39957;DHT22;48483;44.640;7.494;2022-09-09T00:03:02;22.30;99.90
39957;DHT22;48483;44.640;7.494;2022-09-09T00:05:37;22.30;99.90
39957;DHT22;48483;44.640;7.494;2022-09-09T00:08:15;22.30;99.90
39957;DHT22;48483;44.640;7.494;2022-09-09T00:10:48;22.30;99.90
39957;DHT22;48483;44.640;7.494;2022-09-09T00:13:20;22.30;99.90
39957;DHT22;48483;44.640;7.494;2022-09-09T00:15:57;22.30;99.90
39957;DHT22;48483;44.640;7.494;2022-09-09T00:18:28;22.30;99.90
39957;DHT22;48483;44.640;7.494;2022-09-09T00:21:00;22.30;99.90
39957;DHT22;48483;44.640;7.494;2022-09-09T00:23:32;22.30;99.90
39957;DHT22;48483;44.640;7.494;2022-09-09T00:26:04;22.30;99.90
39957;DHT22;48483;44.640;7.494;2022-09-09T00:28:39;22.30;99.90
39957;DHT22;48483;44.640;7.494;2022-09-09T00:31:12;22.40;99.90
39957;DHT22;48483;44.640;7.494;2022-09-09T00:33:39;22.40;99.90
39957;DHT22;48483;44.640;7.494;2022-09-09T00:36:13;22.40;99.90
39957;DHT22;48483;44.640;7.494;2022-09-09T00:38:46;22.40;99.90
39957;DHT22;48483;44.640;7.494;2022-09-09T00:41:19;22.40;99.90
39957;DHT22;48483;44.640;7.494;2022-09-09T00:43:55;22.40;99.90
39957;DHT22;48483;44.640;7.494;2022-09-09T00:46:38;22.40;99.90
39957;DHT22;48483;44.640;7.494;2022-09-09T00:49:18;22.40;99.90
39957;DHT22;48483;44.640;7.494;2022-09-09T00:51:55;22.40;99.90
39957;DHT22;48483;44.640;7.494;2022-09-09T00:54:32;22.40;99.90
39957;DHT22;48483;44.640;7.494;2022-09-09T00:57:13;22.40;99.90
39957;DHT22;48483;44.640;7.494;2022-09-09T00:59:47;22.40;99.90
39957;DHT22;48483;44.640;7.494;2022-09-09T01:02:25;22.40;99.90
39957;DHT22;48483;44.640;7.494;2022-09-09T01:04:53;22.30;99.90
39957;DHT22;48483;44.640;7.494;2022-09-09T01:07:21;22.30;99.90
39957;DHT22;48483;44.640;7.494;2022-09-09T01:09:56;22.30;99.90
39957;DHT22;48483;44.640;7.494;2022-09-09T01:12:28;22.30;99.90
39957;DHT22;48483;44.640;7.494;2022-09-09T01:15:03;22.40;99.90
39957;DHT22;48483;44.640;7.494;2022-09-09T01:17:49;22.30;99.90
39957;DHT22;48483;44.640;7.494;2022-09-09T01:20:21;22.30;99.90
39957;DHT22;48483;44.640;7.494;2022-09-09T01:26:04;22.30;99.90
39957;DHT22;48483;44.640;7.494;2022-09-09T01:28:35;22.30;99.90
39957;DHT22;48483;44.640;7.494;2022-09-09T01:31:09;22.20;99.90
39957;DHT22;48483;44.640;7.494;2022-09-09T01:33:43;22.20;99.90
39957;DHT22;48483;44.640;7.494;2022-09-09T01:36:13;22.10;99.90
39957;DHT22;48483;44.640;7.494;2022-09-09T01:38:48;22.00;99.90
39957;DHT22;48483;44.640;7.494;2022-09-09T01:41:17;22.00;99.90
39957;DHT22;48483;44.640;7.494;2022-09-09T01:43:50;21.90;99.90
39957;DHT22;48483;44.640;7.494;2022-09-09T01:46:18;21.80;99.90
39957;DHT22;48483;44.640;7.494;2022-09-09T01:48:48;21.80;99.90
39957;DHT22;48483;44.640;7.494;2022-09-09T01:51:15;21.80;99.90
39957;DHT22;48483;44.640;7.494;2022-09-09T01:53:43;21.80;99.90
39957;DHT22;48483;44.640;7.494;2022-09-09T01:56:27;21.70;99.90
39957;DHT22;48483;44.640;7.494;2022-09-09T01:59:19;21.70;99.90
39957;DHT22;48483;44.640;7.494;2022-09-09T02:02:03;21.70;99.90
39957;DHT22;48483;44.640;7.494;2022-09-09T02:04:37;21.70;99.90
39957;DHT22;48483;44.640;7.494;2022-09-09T02:07:24;21.60;99.90
39957;DHT22;48483;44.640;7.494;2022-09-09T02:10:00;21.60;99.90
39957;DHT22;48483;44.640;7.494;2022-09-09T02:12:30;21.50;99.90
39957;DHT22;48483;44.640;7.494;2022-09-09T02:15:03;21.50;99.90
39957;DHT22;48483;44.640;7.494;2022-09-09T02:17:41;21.50;99.90
39957;DHT22;48483;44.640;7.494;2022-09-09T02:20:14;21.50;99.90
39957;DHT22;48483;44.640;7.494;2022-09-09T02:22:50;21.40;99.90
39957;DHT22;48483;44.640;7.494;2022-09-09T02:25:22;21.40;99.90
39957;DHT22;48483;44.640;7.494;2022-09-09T02:27:51;21.50;99.90
39957;DHT22;48483;44.640;7.494;2022-09-09T02:30:19;21.40;99.90
39957;DHT22;48483;44.640;7.494;2022-09-09T02:32:58;21.30;99.90
39957;DHT22;48483;44.640;7.494;2022-09-09T02:35:48;21.30;99.90
39957;DHT22;48483;44.640;7.494;2022-09-09T02:38:21;21.20;99.90
39957;DHT22;48483;44.640;7.494;2022-09-09T02:40:57;21.20;99.90
39957;DHT22;48483;44.640;7.494;2022-09-09T02:43:31;21.20;99.90
39957;DHT22;48483;44.640;7.494;2022-09-09T02:46:05;21.00;99.90
39957;DHT22;48483;44.640;7.494;2022-09-09T02:48:40;21.00;99.90
39957;DHT22;48483;44.640;7.494;2022-09-09T02:51:18;21.00;99.90
39957;DHT22;48483;44.640;7.494;2022-09-09T02:53:50;21.00;99.90
39957;DHT22;48483;44.640;7.494;2022-09-09T02:56:25;20.90;99.90
39957;DHT22;48483;44.640;7.494;2022-09-09T02:58:57;20.90;99.90
39957;DHT22;48483;44.640;7.494;2022-09-09T03:01:25;20.90;99.90
39957;DHT22;48483;44.640;7.494;2022-09-09T03:03:52;20.80;99.90
39957;DHT22;48483;44.640;7.494;2022-09-09T03:06:18;20.90;99.90
39957;DHT22;48483;44.640;7.494;2022-09-09T03:08:50;20.90;99.90
39957;DHT22;48483;44.640;7.494;2022-09-09T03:11:23;20.80;99.90
39957;DHT22;48483;44.640;7.494;2022-09-09T03:13:50;20.80;99.90
39957;DHT22;48483;44.640;7.494;2022-09-09T03:16:19;20.80;99.90
39957;DHT22;48483;44.640;7.494;2022-09-09T03:18:48;20.90;99.90
39957;DHT22;48483;44.640;7.494;2022-09-09T03:21:15;20.90;99.90
39957;DHT22;48483;44.640;7.494;2022-09-09T03:23:42;20.90;99.90
39957;DHT22;48483;44.640;7.494;2022-09-09T03:26:10;20.80;99.90
39957;DHT22;48483;44.640;7.494;2022-09-09T03:28:43;20.80;99.90
39957;DHT22;48483;44.640;7.494;2022-09-09T03:31:11;20.70;99.90
39957;DHT22;48483;44.640;7.494;2022-09-09T03:33:44;20.70;99.90
39957;DHT22;48483;44.640;7.494;2022-09-09T03:36:14;20.80;99.90
39957;DHT22;48483;44.640;7.494;2022-09-09T03:38:41;20.80;99.90
39957;DHT22;48483;44.640;7.494;2022-09-09T03:41:08;20.70;99.90
39957;DHT22;48483;44.640;7.494;2022-09-09T03:43:35;20.70;99.90
39957;DHT22;48483;44.640;7.494;2022-09-09T03:46:02;20.60;99.90
39957;DHT22;48483;44.640;7.494;2022-09-09T03:48:30;20.50;99.90
39957;DHT22;48483;44.640;7.494;2022-09-09T03:50:58;20.50;99.90
39957;DHT22;48483;44.640;7.494;2022-09-09T03:53:27;20.50;99.90
39957;DHT22;48483;44.640;7.494;2022-09-09T03:55:55;20.50;99.90
39957;DHT22;48483;44.640;7.494;2022-09-09T03:58:24;20.40;99.90
39957;DHT22;48483;44.640;7.494;2022-09-09T04:00:55;20.40;99.90
39957;DHT22;48483;44.640;7.494;2022-09-09T04:03:22;20.40;99.90
39957;DHT22;48483;44.640;7.494;2022-09-09T04:05:51;20.50;99.90
39957;DHT22;48483;44.640;7.494;2022-09-09T04:08:20;20.40;99.90
39957;DHT22;48483;44.640;7.494;2022-09-09T04:10:49;20.40;99.90
39957;DHT22;48483;44.640;7.494;2022-09-09T04:13:17;20.40;99.90
39957;DHT22;48483;44.640;7.494;2022-09-09T04:15:50;20.50;99.90
39957;DHT22;48483;44.640;7.494;2022-09-09T04:18:17;20.40;99.90
39957;DHT22;48483;44.640;7.494;2022-09-09T04:20:46;20.40;99.90
39957;DHT22;48483;44.640;7.494;2022-09-09T04:23:13;20.40;99.90
39957;DHT22;48483;44.640;7.494;2022-09-09T04:25:45;20.30;99.90
39957;DHT22;48483;44.640;7.494;2022-09-09T04:28:14;20.30;99.90
39957;DHT22;48483;44.640;7.494;2022-09-09T04:30:41;20.30;99.90
39957;DHT22;48483;44.640;7.494;2022-09-09T04:33:08;20.30;99.90
39957;DHT22;48483;44.640;7.494;2022-09-09T04:35:37;20.30;99.90
39957;DHT22;48483;44.640;7.494;2022-09-09T04:38:05;20.30;99.90
39957;DHT22;48483;44.640;7.494;2022-09-09T04:40:35;20.30;99.90
39957;DHT22;48483;44.640;7.494;2022-09-09T04:43:04;20.40;99.90
39957;DHT22;48483;44.640;7.494;2022-09-09T04:45:31;20.40;99.90
39957;DHT22;48483;44.640;7.494;2022-09-09T04:47:59;20.50;99.90
39957;DHT22;48483;44.640;7.494;2022-09-09T04:50:26;20.40;99.90
39957;DHT22;48483;44.640;7.494;2022-09-09T04:53:00;20.40;99.90
39957;DHT22;48483;44.640;7.494;2022-09-09T04:55:28;20.40;99.90
39957;DHT22;48483;44.640;7.494;2022-09-09T04:57:55;20.40;99.90
39957;DHT22;48483;44.640;7.494;2022-09-09T05:00:23;20.40;99.90
39957;DHT22;48483;44.640;7.494;2022-09-09T05:02:50;20.40;99.90
39957;DHT22;48483;44.640;7.494;2022-09-09T05:05:18;20.40;99.90
39957;DHT22;48483;44.640;7.494;2022-09-09T05:07:46;20.40;99.90
39957;DHT22;48483;44.640;7.494;2022-09-09T05:10:15;20.40;99.90
39957;DHT22;48483;44.640;7.494;2022-09-09T05:12:52;20.30;99.90
39957;DHT22;48483;44.640;7.494;2022-09-09T05:15:20;20.20;99.90
39957;DHT22;48483;44.640;7.494;2022-09-09T05:17:49;20.10;99.90
39957;DHT22;48483;44.640;7.494;2022-09-09T05:20:16;20.00;99.90
39957;DHT22;48483;44.640;7.494;2022-09-09T05:22:43;19.90;99.90
39957;DHT22;48483;44.640;7.494;2022-09-09T05:25:10;20.00;99.90
39957;DHT22;48483;44.640;7.494;2022-09-09T05:27:37;20.00;99.90
39957;DHT22;48483;44.640;7.494;2022-09-09T05:30:05;20.00;99.90
39957;DHT22;48483;44.640;7.494;2022-09-09T05:32:32;19.90;99.90
39957;DHT22;48483;44.640;7.494;2022-09-09T05:35:02;19.80;99.90
39957;DHT22;48483;44.640;7.494;2022-09-09T05:37:30;19.90;99.90
39957;DHT22;48483;44.640;7.494;2022-09-09T05:39:57;20.00;99.90
39957;DHT22;48483;44.640;7.494;2022-09-09T05:42:24;20.10;99.90
39957;DHT22;48483;44.640;7.494;2022-09-09T05:44:51;20.20;99.90
39957;DHT22;48483;44.640;7.494;2022-09-09T05:47:21;20.30;99.90
39957;DHT22;48483;44.640;7.494;2022-09-09T05:49:48;20.30;99.90
39957;DHT22;48483;44.640;7.494;2022-09-09T05:52:17;20.30;99.90
39957;DHT22;48483;44.640;7.494;2022-09-09T05:54:44;20.40;99.90
39957;DHT22;48483;44.640;7.494;2022-09-09T05:57:10;20.40;99.90
39957;DHT22;48483;44.640;7.494;2022-09-09T05:59:37;20.50;99.90
39957;DHT22;48483;44.640;7.494;2022-09-09T06:02:05;20.50;99.90
39957;DHT22;48483;44.640;7.494;2022-09-09T06:04:35;20.50;99.90
39957;DHT22;48483;44.640;7.494;2022-09-09T06:07:04;20.60;99.90
39957;DHT22;48483;44.640;7.494;2022-09-09T06:09:32;20.60;99.90
39957;DHT22;48483;44.640;7.494;2022-09-09T06:11:59;20.60;99.90
39957;DHT22;48483;44.640;7.494;2022-09-09T06:14:26;20.60;99.90
39957;DHT22;48483;44.640;7.494;2022-09-09T06:16:56;20.70;99.90
39957;DHT22;48483;44.640;7.494;2022-09-09T06:19:26;20.70;99.90
39957;DHT22;48483;44.640;7.494;2022-09-09T06:21:55;20.70;99.90
39957;DHT22;48483;44.640;7.494;2022-09-09T06:24:22;20.80;99.90
39957;DHT22;48483;44.640;7.494;2022-09-09T06:26:51;20.80;99.90
39957;DHT22;48483;44.640;7.494;2022-09-09T06:29:23;20.80;99.90
39957;DHT22;48483;44.640;7.494;2022-09-09T06:31:51;20.80;99.90
39957;DHT22;48483;44.640;7.494;2022-09-09T06:34:22;20.90;99.90
39957;DHT22;48483;44.640;7.494;2022-09-09T06:36:57;21.00;99.90
39957;DHT22;48483;44.640;7.494;2022-09-09T06:39:24;21.00;99.90
39957;DHT22;48483;44.640;7.494;2022-09-09T06:41:53;21.10;99.90
39957;DHT22;48483;44.640;7.494;2022-09-09T06:44:39;21.20;99.90
39957;DHT22;48483;44.640;7.494;2022-09-09T06:47:09;21.30;99.90
39957;DHT22;48483;44.640;7.494;2022-09-09T06:49:38;21.50;99.90
39957;DHT22;48483;44.640;7.494;2022-09-09T06:52:08;21.60;99.90
39957;DHT22;48483;44.640;7.494;2022-09-09T06:54:35;21.70;99.90
39957;DHT22;48483;44.640;7.494;2022-09-09T06:57:05;21.80;99.90
39957;DHT22;48483;44.640;7.494;2022-09-09T06:59:34;21.90;99.90
39957;DHT22;48483;44.640;7.494;2022-09-09T07:02:01;21.90;99.90
39957;DHT22;48483;44.640;7.494;2022-09-09T07:04:28;22.00;99.90
39957;DHT22;48483;44.640;7.494;2022-09-09T07:06:55;22.20;99.90
39957;DHT22;48483;44.640;7.494;2022-09-09T07:09:24;22.30;99.90
39957;DHT22;48483;44.640;7.494;2022-09-09T07:11:53;22.40;99.90
39957;DHT22;48483;44.640;7.494;2022-09-09T07:14:22;22.50;99.90
39957;DHT22;48483;44.640;7.494;2022-09-09T07:16:55;22.50;99.90
39957;DHT22;48483;44.640;7.494;2022-09-09T07:19:22;22.60;99.90
39957;DHT22;48483;44.640;7.494;2022-09-09T07:21:52;22.60;99.90
39957;DHT22;48483;44.640;7.494;2022-09-09T07:24:21;22.70;99.90
39957;DHT22;48483;44.640;7.494;2022-09-09T07:26:49;22.50;99.90
39957;DHT22;48483;44.640;7.494;2022-09-09T07:29:16;22.50;99.90
39957;DHT22;48483;44.640;7.494;2022-09-09T07:31:44;22.60;99.90
39957;DHT22;48483;44.640;7.494;2022-09-09T07:34:14;22.70;99.90
39957;DHT22;48483;44.640;7.494;2022-09-09T07:36:41;22.90;99.90
39957;DHT22;48483;44.640;7.494;2022-09-09T07:39:13;22.90;99.90
39957;DHT22;48483;44.640;7.494;2022-09-09T07:41:44;22.90;99.90
39957;DHT22;48483;44.640;7.494;2022-09-09T07:44:13;22.80;99.90
39957;DHT22;48483;44.640;7.494;2022-09-09T07:46:41;22.90;99.90
39957;DHT22;48483;44.640;7.494;2022-09-09T07:49:12;22.80;99.90
39957;DHT22;48483;44.640;7.494;2022-09-09T07:51:41;22.80;99.90
39957;DHT22;48483;44.640;7.494;2022-09-09T07:54:09;22.80;99.90
39957;DHT22;48483;44.640;7.494;2022-09-09T07:56:40;22.90;99.90
39957;DHT22;48483;44.640;7.494;2022-09-09T07:59:08;22.90;99.90
39957;DHT22;48483;44.640;7.494;2022-09-09T08:01:39;23.10;99.90
39957;DHT22;48483;44.640;7.494;2022-09-09T08:04:10;23.30;99.90
39957;DHT22;48483;44.640;7.494;2022-09-09T08:06:40;23.40;99.90
39957;DHT22;48483;44.640;7.494;2022-09-09T08:09:09;23.60;99.90
39957;DHT22;48483;44.640;7.494;2022-09-09T08:11:38;23.50;99.90
39957;DHT22;48483;44.640;7.494;2022-09-09T08:14:05;23.30;99.90
39957;DHT22;48483;44.640;7.494;2022-09-09T08:16:36;23.30;99.90
39957;DHT22;48483;44.640;7.494;2022-09-09T08:19:04;23.40;99.90
39957;DHT22;48483;44.640;7.494;2022-09-09T08:21:31;23.40;99.90
39957;DHT22;48483;44.640;7.494;2022-09-09T08:24:02;23.30;99.90
39957;DHT22;48483;44.640;7.494;2022-09-09T08:26:31;23.40;99.90
39957;DHT22;48483;44.640;7.494;2022-09-09T08:28:59;23.60;99.90
39957;DHT22;48483;44.640;7.494;2022-09-09T08:31:28;23.70;99.90
39957;DHT22;48483;44.640;7.494;2022-09-09T08:33:56;23.80;99.90
39957;DHT22;48483;44.640;7.494;2022-09-09T08:36:25;23.80;99.90
39957;DHT22;48483;44.640;7.494;2022-09-09T08:38:53;24.00;99.90
39957;DHT22;48483;44.640;7.494;2022-09-09T08:41:51;24.10;99.90
39957;DHT22;48483;44.640;7.494;2022-09-09T08:44:26;24.10;99.90
39957;DHT22;48483;44.640;7.494;2022-09-09T08:47:00;24.10;99.90
39957;DHT22;48483;44.640;7.494;2022-09-09T08:49:45;24.30;99.90
39957;DHT22;48483;44.640;7.494;2022-09-09T08:52:18;24.40;99.90
39957;DHT22;48483;44.640;7.494;2022-09-09T08:54:45;24.50;99.90
39957;DHT22;48483;44.640;7.494;2022-09-09T08:57:19;24.50;99.90
39957;DHT22;48483;44.640;7.494;2022-09-09T08:59:49;24.50;99.90
39957;DHT22;48483;44.640;7.494;2022-09-09T09:02:21;24.50;99.90
39957;DHT22;48483;44.640;7.494;2022-09-09T09:04:58;24.70;99.90
39957;DHT22;48483;44.640;7.494;2022-09-09T09:07:36;24.70;99.90
39957;DHT22;48483;44.640;7.494;2022-09-09T09:10:15;24.70;99.90
39957;DHT22;48483;44.640;7.494;2022-09-09T09:12:47;24.70;99.90
39957;DHT22;48483;44.640;7.494;2022-09-09T09:15:20;24.70;99.90
39957;DHT22;48483;44.640;7.494;2022-09-09T09:17:49;24.80;99.90
39957;DHT22;48483;44.640;7.494;2022-09-09T09:20:20;24.90;99.90
39957;DHT22;48483;44.640;7.494;2022-09-09T09:22:52;25.00;99.90
39957;DHT22;48483;44.640;7.494;2022-09-09T09:25:21;25.10;99.90
39957;DHT22;48483;44.640;7.494;2022-09-09T09:28:02;25.10;99.90
39957;DHT22;48483;44.640;7.494;2022-09-09T09:30:36;25.20;99.90
39957;DHT22;48483;44.640;7.494;2022-09-09T09:33:15;25.20;99.90
39957;DHT22;48483;44.640;7.494;2022-09-09T09:35:44;25.20;99.90
39957;DHT22;48483;44.640;7.494;2022-09-09T09:38:17;25.20;99.90
39957;DHT22;48483;44.640;7.494;2022-09-09T09:40:52;25.30;99.90
39957;DHT22;48483;44.640;7.494;2022-09-09T09:43:28;25.40;99.90
39957;DHT22;48483;44.640;7.494;2022-09-09T09:45:55;25.30;99.90
39957;DHT22;48483;44.640;7.494;2022-09-09T09:48:25;25.30;99.90
39957;DHT22;48483;44.640;7.494;2022-09-09T09:50:55;25.30;99.90
39957;DHT22;48483;44.640;7.494;2022-09-09T09:53:25;25.30;99.90
39957;DHT22;48483;44.640;7.494;2022-09-09T09:55:56;25.30;99.90
39957;DHT22;48483;44.640;7.494;2022-09-09T09:58:26;25.40;99.90
39957;DHT22;48483;44.640;7.494;2022-09-09T10:00:55;25.50;99.90
39957;DHT22;48483;44.640;7.494;2022-09-09T10:03:28;25.50;99.90
39957;DHT22;48483;44.640;7.494;2022-09-09T10:05:56;25.60;99.90
39957;DHT22;48483;44.640;7.494;2022-09-09T10:08:23;25.60;99.90
39957;DHT22;48483;44.640;7.494;2022-09-09T10:11:02;25.60;99.90
39957;DHT22;48483;44.640;7.494;2022-09-09T10:13:42;25.70;99.90
39957;DHT22;48483;44.640;7.494;2022-09-09T10:16:24;25.70;99.70
39957;DHT22;48483;44.640;7.494;2022-09-09T10:18:59;25.70;99.70
39957;DHT22;48483;44.640;7.494;2022-09-09T10:21:42;25.80;99.30
39957;DHT22;48483;44.640;7.494;2022-09-09T10:24:32;25.80;98.40
39957;DHT22;48483;44.640;7.494;2022-09-09T10:27:05;25.80;98.30
39957;DHT22;48483;44.640;7.494;2022-09-09T10:29:53;25.80;98.70
39957;DHT22;48483;44.640;7.494;2022-09-09T10:32:37;25.90;98.40
39957;DHT22;48483;44.640;7.494;2022-09-09T10:35:12;25.90;98.00
39957;DHT22;48483;44.640;7.494;2022-09-09T10:37:54;26.00;97.80
39957;DHT22;48483;44.640;7.494;2022-09-09T10:40:32;25.90;92.90
39957;DHT22;48483;44.640;7.494;2022-09-09T10:43:08;26.00;91.90
39957;DHT22;48483;44.640;7.494;2022-09-09T10:45:48;26.00;93.80
39957;DHT22;48483;44.640;7.494;2022-09-09T10:51:19;26.20;90.20
39957;DHT22;48483;44.640;7.494;2022-09-09T10:53:57;26.20;90.80
39957;DHT22;48483;44.640;7.494;2022-09-09T10:56:30;26.20;88.70
39957;DHT22;48483;44.640;7.494;2022-09-09T10:59:01;26.20;85.60
39957;DHT22;48483;44.640;7.494;2022-09-09T11:01:35;26.20;89.30
39957;DHT22;48483;44.640;7.494;2022-09-09T11:04:06;26.20;86.90
39957;DHT22;48483;44.640;7.494;2022-09-09T11:06:39;26.30;87.10
39957;DHT22;48483;44.640;7.494;2022-09-09T11:09:15;26.30;86.60
39957;DHT22;48483;44.640;7.494;2022-09-09T11:11:48;26.30;80.50
39957;DHT22;48483;44.640;7.494;2022-09-09T11:14:22;26.30;82.50
39957;DHT22;48483;44.640;7.494;2022-09-09T11:16:57;26.40;83.50
39957;DHT22;48483;44.640;7.494;2022-09-09T11:19:28;26.30;74.30
39957;DHT22;48483;44.640;7.494;2022-09-09T11:21:57;26.40;78.20
39957;DHT22;48483;44.640;7.494;2022-09-09T11:24:29;26.40;76.70
39957;DHT22;48483;44.640;7.494;2022-09-09T11:27:01;26.50;78.30
39957;DHT22;48483;44.640;7.494;2022-09-09T11:30:03;26.50;77.40
39957;DHT22;48483;44.640;7.494;2022-09-09T11:33:22;26.50;78.30
39957;DHT22;48483;44.640;7.494;2022-09-09T11:36:05;26.60;80.60
39957;DHT22;48483;44.640;7.494;2022-09-09T11:38:42;26.50;79.20
39957;DHT22;48483;44.640;7.494;2022-09-09T11:41:12;26.70;80.30
39957;DHT22;48483;44.640;7.494;2022-09-09T11:43:41;26.60;76.60
39957;DHT22;48483;44.640;7.494;2022-09-09T11:46:09;26.70;77.30
39957;DHT22;48483;44.640;7.494;2022-09-09T11:48:39;26.70;77.10
39957;DHT22;48483;44.640;7.494;2022-09-09T11:51:10;26.80;77.60
39957;DHT22;48483;44.640;7.494;2022-09-09T11:53:48;26.80;79.40
39957;DHT22;48483;44.640;7.494;2022-09-09T11:56:25;26.80;78.50
39957;DHT22;48483;44.640;7.494;2022-09-09T11:58:59;26.70;78.90
39957;DHT22;48483;44.640;7.494;2022-09-09T12:01:34;26.60;78.30
39957;DHT22;48483;44.640;7.494;2022-09-09T12:04:31;26.60;79.50
39957;DHT22;48483;44.640;7.494;2022-09-09T12:07:01;26.60;79.00
39957;DHT22;48483;44.640;7.494;2022-09-09T12:09:45;26.60;81.90
39957;DHT22;48483;44.640;7.494;2022-09-09T12:12:27;26.60;80.10
39957;DHT22;48483;44.640;7.494;2022-09-09T12:15:00;26.70;73.90
39957;DHT22;48483;44.640;7.494;2022-09-09T12:17:29;26.70;72.20
39957;DHT22;48483;44.640;7.494;2022-09-09T12:20:08;26.80;74.70
39957;DHT22;48483;44.640;7.494;2022-09-09T12:22:39;26.80;75.50
39957;DHT22;48483;44.640;7.494;2022-09-09T12:25:18;26.90;71.80
39957;DHT22;48483;44.640;7.494;2022-09-09T12:27:53;26.80;69.10
39957;DHT22;48483;44.640;7.494;2022-09-09T12:30:29;26.90;68.80
39957;DHT22;48483;44.640;7.494;2022-09-09T12:33:02;26.90;67.40
39957;DHT22;48483;44.640;7.494;2022-09-09T12:35:30;27.00;67.10
39957;DHT22;48483;44.640;7.494;2022-09-09T12:38:00;27.00;64.20
39957;DHT22;48483;44.640;7.494;2022-09-09T12:40:28;27.00;63.50
39957;DHT22;48483;44.640;7.494;2022-09-09T12:42:55;27.00;64.10
39957;DHT22;48483;44.640;7.494;2022-09-09T12:45:24;26.90;63.70
39957;DHT22;48483;44.640;7.494;2022-09-09T12:47:57;27.00;62.50
39957;DHT22;48483;44.640;7.494;2022-09-09T12:50:25;27.00;61.40
39957;DHT22;48483;44.640;7.494;2022-09-09T12:52:57;27.00;61.60
39957;DHT22;48483;44.640;7.494;2022-09-09T12:55:29;27.10;60.70
39957;DHT22;48483;44.640;7.494;2022-09-09T12:57:57;27.10;59.90
39957;DHT22;48483;44.640;7.494;2022-09-09T13:00:26;27.10;59.80
39957;DHT22;48483;44.640;7.494;2022-09-09T13:02:56;27.10;59.00
39957;DHT22;48483;44.640;7.494;2022-09-09T13:05:24;27.20;58.80
39957;DHT22;48483;44.640;7.494;2022-09-09T13:08:02;27.20;59.70
39957;DHT22;48483;44.640;7.494;2022-09-09T13:10:32;27.10;59.40
39957;DHT22;48483;44.640;7.494;2022-09-09T13:13:00;27.10;60.20
39957;DHT22;48483;44.640;7.494;2022-09-09T13:15:28;27.20;60.10
39957;DHT22;48483;44.640;7.494;2022-09-09T13:17:57;27.20;61.40
39957;DHT22;48483;44.640;7.494;2022-09-09T13:20:25;27.10;59.80
39957;DHT22;48483;44.640;7.494;2022-09-09T13:22:53;27.20;59.80
39957;DHT22;48483;44.640;7.494;2022-09-09T13:25:24;27.20;59.90
39957;DHT22;48483;44.640;7.494;2022-09-09T13:27:59;27.30;58.00
39957;DHT22;48483;44.640;7.494;2022-09-09T13:30:29;27.30;58.10
39957;DHT22;48483;44.640;7.494;2022-09-09T13:33:17;27.30;58.80
39957;DHT22;48483;44.640;7.494;2022-09-09T13:35:48;27.30;60.10
39957;DHT22;48483;44.640;7.494;2022-09-09T13:38:16;27.30;57.90
39957;DHT22;48483;44.640;7.494;2022-09-09T13:40:54;27.30;56.30
39957;DHT22;48483;44.640;7.494;2022-09-09T13:43:25;27.40;57.30
39957;DHT22;48483;44.640;7.494;2022-09-09T13:45:54;27.40;57.20
39957;DHT22;48483;44.640;7.494;2022-09-09T13:48:22;27.40;57.80
39957;DHT22;48483;44.640;7.494;2022-09-09T13:50:55;27.40;57.50
39957;DHT22;48483;44.640;7.494;2022-09-09T13:53:22;27.30;57.00
39957;DHT22;48483;44.640;7.494;2022-09-09T13:55:49;27.30;57.80
39957;DHT22;48483;44.640;7.494;2022-09-09T13:58:18;27.30;56.10
39957;DHT22;48483;44.640;7.494;2022-09-09T14:00:46;27.30;56.10
39957;DHT22;48483;44.640;7.494;2022-09-09T14:03:13;27.40;55.60
39957;DHT22;48483;44.640;7.494;2022-09-09T14:05:40;27.40;54.30
39957;DHT22;48483;44.640;7.494;2022-09-09T14:08:15;27.40;54.60
39957;DHT22;48483;44.640;7.494;2022-09-09T14:10:42;27.40;54.00
39957;DHT22;48483;44.640;7.494;2022-09-09T14:13:09;27.30;52.20
39957;DHT22;48483;44.640;7.494;2022-09-09T14:15:37;27.40;51.90
39957;DHT22;48483;44.640;7.494;2022-09-09T14:18:04;27.40;52.70
39957;DHT22;48483;44.640;7.494;2022-09-09T14:20:31;27.30;53.20
39957;DHT22;48483;44.640;7.494;2022-09-09T14:22:58;27.40;52.00
39957;DHT22;48483;44.640;7.494;2022-09-09T14:25:25;27.40;51.30
39957;DHT22;48483;44.640;7.494;2022-09-09T14:27:52;27.30;51.50
39957;DHT22;48483;44.640;7.494;2022-09-09T14:30:19;27.40;51.00
39957;DHT22;48483;44.640;7.494;2022-09-09T14:32:48;27.40;50.40
39957;DHT22;48483;44.640;7.494;2022-09-09T14:35:14;27.50;49.60
39957;DHT22;48483;44.640;7.494;2022-09-09T14:37:41;27.50;48.30
39957;DHT22;48483;44.640;7.494;2022-09-09T14:40:08;27.40;47.10
39957;DHT22;48483;44.640;7.494;2022-09-09T14:42:35;27.40;46.70
39957;DHT22;48483;44.640;7.494;2022-09-09T14:45:02;27.50;46.60
39957;DHT22;48483;44.640;7.494;2022-09-09T14:47:29;27.50;48.10
39957;DHT22;48483;44.640;7.494;2022-09-09T14:49:58;27.50;47.40
39957;DHT22;48483;44.640;7.494;2022-09-09T14:52:24;27.50;46.60
39957;DHT22;48483;44.640;7.494;2022-09-09T14:54:51;27.50;45.30
39957;DHT22;48483;44.640;7.494;2022-09-09T14:57:18;27.50;44.50
39957;DHT22;48483;44.640;7.494;2022-09-09T14:59:45;27.50;44.20
39957;DHT22;48483;44.640;7.494;2022-09-09T15:02:12;27.50;43.50
39957;DHT22;48483;44.640;7.494;2022-09-09T15:04:40;27.60;42.00
39957;DHT22;48483;44.640;7.494;2022-09-09T15:07:08;27.50;40.40
39957;DHT22;48483;44.640;7.494;2022-09-09T15:09:35;27.50;40.10
39957;DHT22;48483;44.640;7.494;2022-09-09T15:12:04;27.50;40.30
39957;DHT22;48483;44.640;7.494;2022-09-09T15:14:31;27.50;41.00
39957;DHT22;48483;44.640;7.494;2022-09-09T15:16:58;27.50;40.70
39957;DHT22;48483;44.640;7.494;2022-09-09T15:19:24;27.50;40.40
39957;DHT22;48483;44.640;7.494;2022-09-09T15:21:51;27.50;40.10
39957;DHT22;48483;44.640;7.494;2022-09-09T15:24:19;27.50;40.10
39957;DHT22;48483;44.640;7.494;2022-09-09T15:26:46;27.50;40.50
39957;DHT22;48483;44.640;7.494;2022-09-09T15:29:13;27.50;40.60
39957;DHT22;48483;44.640;7.494;2022-09-09T15:31:40;27.40;40.70
39957;DHT22;48483;44.640;7.494;2022-09-09T15:34:07;27.40;40.20
39957;DHT22;48483;44.640;7.494;2022-09-09T15:36:35;27.40;40.20
39957;DHT22;48483;44.640;7.494;2022-09-09T15:39:03;27.40;42.20
39957;DHT22;48483;44.640;7.494;2022-09-09T15:41:32;27.40;40.70
39957;DHT22;48483;44.640;7.494;2022-09-09T15:43:59;27.50;39.10
39957;DHT22;48483;44.640;7.494;2022-09-09T15:46:31;27.50;38.70
39957;DHT22;48483;44.640;7.494;2022-09-09T15:49:02;27.60;37.50
39957;DHT22;48483;44.640;7.494;2022-09-09T15:51:30;27.60;37.50
39957;DHT22;48483;44.640;7.494;2022-09-09T15:53:57;27.70;43.20
39957;DHT22;48483;44.640;7.494;2022-09-09T15:56:25;27.70;46.60
39957;DHT22;48483;44.640;7.494;2022-09-09T15:58:55;27.60;48.20
39957;DHT22;48483;44.640;7.494;2022-09-09T16:01:22;27.60;49.10